sensor_id;sensor_type;location;lat;lon;timestamp;P1;durP1;ratioP1;P2;durP2;ratioP2
3865;SDS011;1948;53.250;10.412;2023-03-01T00:01:46;15.13;;;8.43;;
3865;SDS011;1948;53.250;10.412;2023-03-01T00:04:13;18.20;;;8.27;;
3865;SDS011;1948;53.250;10.412;2023-03-01T00:06:40;10.93;;;8.47;;
3865;SDS011;1948;53.250;10.412;2023-03-01T00:09:12;15.33;;;8.60;;
3865;SDS011;1948;53.250;10.412;2023-03-01T00:11:40;10.43;;;8.53;;
3865;SDS011;1948;53.250;10.412;2023-03-01T00:14:10;12.10;;;7.83;;
3865;SDS011;1948;53.250;10.412;2023-03-01T00:16:39;14.00;;;8.50;;
3865;SDS011;1948;53.250;10.412;2023-03-01T00:19:12;16.60;;;8.57;;
3865;SDS011;1948;53.250;10.412;2023-03-01T00:21:44;10.00;;;7.47;;
3865;SDS011;1948;53.250;10.412;2023-03-01T00:24:11;11.47;;;7.20;;
3865;SDS011;1948;53.250;10.412;2023-03-01T00:26:41;11.33;;;7.00;;
3865;SDS011;1948;53.250;10.412;2023-03-01T00:29:11;11.43;;;7.60;;
3865;SDS011;1948;53.250;10.412;2023-03-01T00:31:40;9.10;;;7.10;;
3865;SDS011;1948;53.250;10.412;2023-03-01T00:34:09;11.10;;;7.67;;
3865;SDS011;1948;53.250;10.412;2023-03-01T00:36:39;11.73;;;7.20;;
3865;SDS011;1948;53.250;10.412;2023-03-01T00:39:12;8.67;;;7.23;;
3865;SDS011;1948;53.250;10.412;2023-03-01T00:41:41;10.40;;;7.00;;
3865;SDS011;1948;53.250;10.412;2023-03-01T00:44:09;7.67;;;6.63;;
3865;SDS011;1948;53.250;10.412;2023-03-01T00:46:36;12.77;;;7.03;;
3865;SDS011;1948;53.250;10.412;2023-03-01T00:49:04;8.00;;;6.80;;
3865;SDS011;1948;53.250;10.412;2023-03-01T00:51:33;10.27;;;7.20;;
3865;SDS011;1948;53.250;10.412;2023-03-01T00:54:01;13.80;;;8.03;;
3865;SDS011;1948;53.250;10.412;2023-03-01T00:56:31;9.47;;;7.27;;
3865;SDS011;1948;53.250;10.412;2023-03-01T00:58:58;10.80;;;7.03;;
3865;SDS011;1948;53.250;10.412;2023-03-01T01:01:27;8.07;;;7.23;;
3865;SDS011;1948;53.250;10.412;2023-03-01T01:03:57;7.77;;;6.80;;
3865;SDS011;1948;53.250;10.412;2023-03-01T01:06:28;9.83;;;7.10;;
3865;SDS011;1948;53.250;10.412;2023-03-01T01:09:11;12.70;;;6.60;;
3865;SDS011;1948;53.250;10.412;2023-03-01T01:11:45;11.60;;;7.13;;
3865;SDS011;1948;53.250;10.412;2023-03-01T01:14:17;9.87;;;6.47;;
3865;SDS011;1948;53.250;10.412;2023-03-01T01:16:46;6.73;;;6.10;;
3865;SDS011;1948;53.250;10.412;2023-03-01T01:19:14;11.57;;;6.87;;
3865;SDS011;1948;53.250;10.412;2023-03-01T01:21:42;6.87;;;6.17;;
3865;SDS011;1948;53.250;10.412;2023-03-01T01:24:11;6.30;;;5.73;;
3865;SDS011;1948;53.250;10.412;2023-03-01T01:26:38;8.10;;;5.60;;
3865;SDS011;1948;53.250;10.412;2023-03-01T01:29:05;6.40;;;5.77;;
3865;SDS011;1948;53.250;10.412;2023-03-01T01:31:33;6.63;;;5.93;;
3865;SDS011;1948;53.250;10.412;2023-03-01T01:34:05;7.90;;;5.90;;
3865;SDS011;1948;53.250;10.412;2023-03-01T01:36:36;6.13;;;5.60;;
3865;SDS011;1948;53.250;10.412;2023-03-01T01:39:03;6.77;;;5.70;;
3865;SDS011;1948;53.250;10.412;2023-03-01T01:41:33;5.90;;;5.40;;
3865;SDS011;1948;53.250;10.412;2023-03-01T01:46:38;9.67;;;6.30;;
3865;SDS011;1948;53.250;10.412;2023-03-01T01:49:19;6.90;;;5.67;;
3865;SDS011;1948;53.250;10.412;2023-03-01T01:52:02;5.60;;;5.10;;
3865;SDS011;1948;53.250;10.412;2023-03-01T01:57:12;6.10;;;5.50;;
3865;SDS011;1948;53.250;10.412;2023-03-01T01:59:54;6.37;;;5.60;;
3865;SDS011;1948;53.250;10.412;2023-03-01T02:02:25;6.60;;;5.90;;
3865;SDS011;1948;53.250;10.412;2023-03-01T02:05:00;5.33;;;4.93;;
3865;SDS011;1948;53.250;10.412;2023-03-01T02:07:36;8.33;;;4.87;;
3865;SDS011;1948;53.250;10.412;2023-03-01T02:10:05;7.40;;;4.87;;
3865;SDS011;1948;53.250;10.412;2023-03-01T02:12:35;8.40;;;5.43;;
3865;SDS011;1948;53.250;10.412;2023-03-01T02:15:05;6.80;;;5.73;;
3865;SDS011;1948;53.250;10.412;2023-03-01T02:17:32;7.10;;;5.27;;
3865;SDS011;1948;53.250;10.412;2023-03-01T02:20:18;7.07;;;5.40;;
3865;SDS011;1948;53.250;10.412;2023-03-01T02:22:53;7.37;;;5.03;;
3865;SDS011;1948;53.250;10.412;2023-03-01T02:25:30;7.27;;;5.30;;
3865;SDS011;1948;53.250;10.412;2023-03-01T02:30:59;5.67;;;5.17;;
3865;SDS011;1948;53.250;10.412;2023-03-01T02:33:45;6.40;;;4.80;;
3865;SDS011;1948;53.250;10.412;2023-03-01T02:36:15;5.10;;;4.80;;
3865;SDS011;1948;53.250;10.412;2023-03-01T02:38:47;5.63;;;4.90;;
3865;SDS011;1948;53.250;10.412;2023-03-01T02:41:19;5.33;;;4.90;;
3865;SDS011;1948;53.250;10.412;2023-03-01T02:43:47;5.53;;;5.03;;
3865;SDS011;1948;53.250;10.412;2023-03-01T02:46:15;4.70;;;4.43;;
3865;SDS011;1948;53.250;10.412;2023-03-01T02:48:55;5.33;;;4.70;;
3865;SDS011;1948;53.250;10.412;2023-03-01T02:56:31;5.23;;;4.40;;
3865;SDS011;1948;53.250;10.412;2023-03-01T02:58:58;4.60;;;4.40;;
3865;SDS011;1948;53.250;10.412;2023-03-01T03:01:27;4.17;;;3.97;;
3865;SDS011;1948;53.250;10.412;2023-03-01T03:04:03;18.53;;;4.70;;
3865;SDS011;1948;53.250;10.412;2023-03-01T03:06:32;4.13;;;3.93;;
3865;SDS011;1948;53.250;10.412;2023-03-01T03:09:00;7.93;;;4.53;;
3865;SDS011;1948;53.250;10.412;2023-03-01T03:11:27;5.03;;;4.63;;
3865;SDS011;1948;53.250;10.412;2023-03-01T03:13:54;4.90;;;4.60;;
3865;SDS011;1948;53.250;10.412;2023-03-01T03:16:24;4.30;;;4.10;;
3865;SDS011;1948;53.250;10.412;2023-03-01T03:18:51;5.03;;;4.63;;
3865;SDS011;1948;53.250;10.412;2023-03-01T03:21:18;4.33;;;4.10;;
3865;SDS011;1948;53.250;10.412;2023-03-01T03:23:48;5.00;;;4.30;;
3865;SDS011;1948;53.250;10.412;2023-03-01T03:26:14;4.40;;;4.20;;
3865;SDS011;1948;53.250;10.412;2023-03-01T03:28:44;4.60;;;4.40;;
3865;SDS011;1948;53.250;10.412;2023-03-01T03:31:12;3.43;;;3.23;;
3865;SDS011;1948;53.250;10.412;2023-03-01T03:33:39;4.37;;;4.03;;
3865;SDS011;1948;53.250;10.412;2023-03-01T03:36:07;4.40;;;3.60;;
3865;SDS011;1948;53.250;10.412;2023-03-01T03:38:44;3.60;;;3.37;;
3865;SDS011;1948;53.250;10.412;2023-03-01T03:41:12;2.80;;;2.70;;
3865;SDS011;1948;53.250;10.412;2023-03-01T03:43:42;3.40;;;3.20;;
3865;SDS011;1948;53.250;10.412;2023-03-01T03:46:10;5.77;;;4.30;;
3865;SDS011;1948;53.250;10.412;2023-03-01T03:48:42;3.53;;;3.43;;
3865;SDS011;1948;53.250;10.412;2023-03-01T03:51:16;3.97;;;3.63;;
3865;SDS011;1948;53.250;10.412;2023-03-01T03:53:44;3.40;;;3.20;;
3865;SDS011;1948;53.250;10.412;2023-03-01T03:56:13;3.93;;;3.73;;
3865;SDS011;1948;53.250;10.412;2023-03-01T03:58:43;3.50;;;3.20;;
3865;SDS011;1948;53.250;10.412;2023-03-01T04:01:12;3.60;;;3.30;;
3865;SDS011;1948;53.250;10.412;2023-03-01T04:03:39;3.73;;;3.50;;
3865;SDS011;1948;53.250;10.412;2023-03-01T04:06:13;2.93;;;2.83;;
3865;SDS011;1948;53.250;10.412;2023-03-01T04:08:45;3.60;;;3.40;;
3865;SDS011;1948;53.250;10.412;2023-03-01T04:11:12;3.57;;;3.27;;
3865;SDS011;1948;53.250;10.412;2023-03-01T04:13:55;3.27;;;3.07;;
3865;SDS011;1948;53.250;10.412;2023-03-01T04:16:24;4.03;;;3.63;;
3865;SDS011;1948;53.250;10.412;2023-03-01T04:18:59;4.87;;;4.03;;
3865;SDS011;1948;53.250;10.412;2023-03-01T04:21:26;3.07;;;3.00;;
3865;SDS011;1948;53.250;10.412;2023-03-01T04:23:53;4.10;;;3.50;;
3865;SDS011;1948;53.250;10.412;2023-03-01T04:26:20;3.83;;;3.63;;
3865;SDS011;1948;53.250;10.412;2023-03-01T04:28:47;3.57;;;3.33;;
3865;SDS011;1948;53.250;10.412;2023-03-01T04:31:17;3.13;;;3.03;;
3865;SDS011;1948;53.250;10.412;2023-03-01T04:33:48;3.40;;;3.30;;
3865;SDS011;1948;53.250;10.412;2023-03-01T04:36:19;3.27;;;2.97;;
3865;SDS011;1948;53.250;10.412;2023-03-01T04:38:51;4.73;;;3.50;;
3865;SDS011;1948;53.250;10.412;2023-03-01T04:41:21;3.60;;;3.30;;
3865;SDS011;1948;53.250;10.412;2023-03-01T04:43:50;3.40;;;3.10;;
3865;SDS011;1948;53.250;10.412;2023-03-01T04:46:18;3.00;;;2.90;;
3865;SDS011;1948;53.250;10.412;2023-03-01T04:48:47;4.00;;;3.80;;
3865;SDS011;1948;53.250;10.412;2023-03-01T04:51:14;3.33;;;3.23;;
3865;SDS011;1948;53.250;10.412;2023-03-01T04:53:42;3.57;;;3.20;;
3865;SDS011;1948;53.250;10.412;2023-03-01T04:56:10;3.10;;;2.87;;
3865;SDS011;1948;53.250;10.412;2023-03-01T04:58:40;3.00;;;2.73;;
3865;SDS011;1948;53.250;10.412;2023-03-01T05:01:08;2.57;;;2.47;;
3865;SDS011;1948;53.250;10.412;2023-03-01T05:03:46;2.77;;;2.60;;
3865;SDS011;1948;53.250;10.412;2023-03-01T05:06:20;2.60;;;2.60;;
3865;SDS011;1948;53.250;10.412;2023-03-01T05:08:47;3.40;;;3.17;;
3865;SDS011;1948;53.250;10.412;2023-03-01T05:11:14;2.83;;;2.83;;
3865;SDS011;1948;53.250;10.412;2023-03-01T05:13:41;6.97;;;2.83;;
3865;SDS011;1948;53.250;10.412;2023-03-01T05:16:10;3.07;;;2.80;;
3865;SDS011;1948;53.250;10.412;2023-03-01T05:18:38;2.73;;;2.53;;
3865;SDS011;1948;53.250;10.412;2023-03-01T05:21:10;2.50;;;2.50;;
3865;SDS011;1948;53.250;10.412;2023-03-01T05:23:42;3.10;;;3.00;;
3865;SDS011;1948;53.250;10.412;2023-03-01T05:26:14;3.07;;;2.87;;
3865;SDS011;1948;53.250;10.412;2023-03-01T05:29:04;3.00;;;2.80;;
3865;SDS011;1948;53.250;10.412;2023-03-01T05:31:31;3.20;;;2.90;;
3865;SDS011;1948;53.250;10.412;2023-03-01T05:34:01;2.57;;;2.57;;
3865;SDS011;1948;53.250;10.412;2023-03-01T05:36:30;2.73;;;2.63;;
3865;SDS011;1948;53.250;10.412;2023-03-01T05:39:00;3.03;;;3.00;;
3865;SDS011;1948;53.250;10.412;2023-03-01T05:41:27;2.53;;;2.53;;
3865;SDS011;1948;53.250;10.412;2023-03-01T05:43:54;2.77;;;2.67;;
3865;SDS011;1948;53.250;10.412;2023-03-01T05:46:23;2.83;;;2.70;;
3865;SDS011;1948;53.250;10.412;2023-03-01T05:48:50;4.20;;;2.60;;
3865;SDS011;1948;53.250;10.412;2023-03-01T05:51:20;3.17;;;2.70;;
3865;SDS011;1948;53.250;10.412;2023-03-01T05:53:50;3.03;;;2.67;;
3865;SDS011;1948;53.250;10.412;2023-03-01T05:56:20;5.03;;;2.63;;
3865;SDS011;1948;53.250;10.412;2023-03-01T05:58:54;3.30;;;3.10;;
3865;SDS011;1948;53.250;10.412;2023-03-01T06:01:21;2.77;;;2.50;;
3865;SDS011;1948;53.250;10.412;2023-03-01T06:03:53;3.80;;;3.30;;
3865;SDS011;1948;53.250;10.412;2023-03-01T06:06:20;3.07;;;2.90;;
3865;SDS011;1948;53.250;10.412;2023-03-01T06:08:52;2.80;;;2.70;;
3865;SDS011;1948;53.250;10.412;2023-03-01T06:11:20;3.00;;;2.90;;
3865;SDS011;1948;53.250;10.412;2023-03-01T06:13:48;2.87;;;2.67;;
3865;SDS011;1948;53.250;10.412;2023-03-01T06:16:14;3.30;;;3.00;;
3865;SDS011;1948;53.250;10.412;2023-03-01T06:18:41;2.83;;;2.67;;
3865;SDS011;1948;53.250;10.412;2023-03-01T06:21:09;2.30;;;2.30;;
3865;SDS011;1948;53.250;10.412;2023-03-01T06:23:38;3.13;;;2.93;;
3865;SDS011;1948;53.250;10.412;2023-03-01T06:26:06;2.97;;;2.87;;
3865;SDS011;1948;53.250;10.412;2023-03-01T06:28:36;2.90;;;2.80;;
3865;SDS011;1948;53.250;10.412;2023-03-01T06:31:06;2.73;;;2.70;;
3865;SDS011;1948;53.250;10.412;2023-03-01T06:33:35;7.10;;;2.63;;
3865;SDS011;1948;53.250;10.412;2023-03-01T06:36:04;2.10;;;2.03;;
3865;SDS011;1948;53.250;10.412;2023-03-01T06:38:36;2.77;;;2.47;;
3865;SDS011;1948;53.250;10.412;2023-03-01T06:41:04;2.37;;;2.30;;
3865;SDS011;1948;53.250;10.412;2023-03-01T06:43:34;2.30;;;2.30;;
3865;SDS011;1948;53.250;10.412;2023-03-01T06:46:03;2.80;;;2.70;;
3865;SDS011;1948;53.250;10.412;2023-03-01T06:48:36;2.53;;;2.53;;
3865;SDS011;1948;53.250;10.412;2023-03-01T06:51:02;13.03;;;3.03;;
3865;SDS011;1948;53.250;10.412;2023-03-01T06:53:32;5.03;;;2.97;;
3865;SDS011;1948;53.250;10.412;2023-03-01T06:56:01;2.90;;;2.80;;
3865;SDS011;1948;53.250;10.412;2023-03-01T06:58:28;2.63;;;2.53;;
3865;SDS011;1948;53.250;10.412;2023-03-01T07:00:56;3.43;;;3.23;;
3865;SDS011;1948;53.250;10.412;2023-03-01T07:03:25;6.60;;;4.10;;
3865;SDS011;1948;53.250;10.412;2023-03-01T07:05:52;14.67;;;2.97;;
3865;SDS011;1948;53.250;10.412;2023-03-01T07:08:19;2.87;;;2.77;;
3865;SDS011;1948;53.250;10.412;2023-03-01T07:10:51;2.93;;;2.83;;
3865;SDS011;1948;53.250;10.412;2023-03-01T07:13:24;3.00;;;2.80;;
3865;SDS011;1948;53.250;10.412;2023-03-01T07:15:51;3.17;;;2.90;;
3865;SDS011;1948;53.250;10.412;2023-03-01T07:18:18;9.07;;;2.80;;
3865;SDS011;1948;53.250;10.412;2023-03-01T07:20:45;3.57;;;3.27;;
3865;SDS011;1948;53.250;10.412;2023-03-01T07:23:12;5.13;;;3.47;;
3865;SDS011;1948;53.250;10.412;2023-03-01T07:25:39;4.60;;;2.90;;
3865;SDS011;1948;53.250;10.412;2023-03-01T07:28:07;29.57;;;4.00;;
3865;SDS011;1948;53.250;10.412;2023-03-01T07:30:34;3.60;;;3.40;;
3865;SDS011;1948;53.250;10.412;2023-03-01T07:33:01;4.83;;;3.40;;
3865;SDS011;1948;53.250;10.412;2023-03-01T07:35:28;3.53;;;3.23;;
3865;SDS011;1948;53.250;10.412;2023-03-01T07:37:55;3.60;;;3.30;;
3865;SDS011;1948;53.250;10.412;2023-03-01T07:40:26;5.23;;;4.03;;
3865;SDS011;1948;53.250;10.412;2023-03-01T07:42:56;3.40;;;3.30;;
3865;SDS011;1948;53.250;10.412;2023-03-01T07:45:25;3.60;;;3.43;;
3865;SDS011;1948;53.250;10.412;2023-03-01T07:47:52;3.77;;;3.53;;
3865;SDS011;1948;53.250;10.412;2023-03-01T07:50:22;3.90;;;3.70;;
3865;SDS011;1948;53.250;10.412;2023-03-01T07:52:49;4.23;;;3.93;;
3865;SDS011;1948;53.250;10.412;2023-03-01T07:55:16;3.50;;;3.40;;
3865;SDS011;1948;53.250;10.412;2023-03-01T07:57:46;4.50;;;4.20;;
3865;SDS011;1948;53.250;10.412;2023-03-01T08:00:13;3.77;;;3.43;;
3865;SDS011;1948;53.250;10.412;2023-03-01T08:02:42;3.80;;;3.60;;
3865;SDS011;1948;53.250;10.412;2023-03-01T08:05:12;3.67;;;3.47;;
3865;SDS011;1948;53.250;10.412;2023-03-01T08:07:39;3.83;;;3.73;;
3865;SDS011;1948;53.250;10.412;2023-03-01T08:10:06;8.90;;;4.53;;
3865;SDS011;1948;53.250;10.412;2023-03-01T08:12:36;4.13;;;3.87;;
3865;SDS011;1948;53.250;10.412;2023-03-01T08:15:05;4.70;;;4.40;;
3865;SDS011;1948;53.250;10.412;2023-03-01T08:17:33;4.67;;;4.27;;
3865;SDS011;1948;53.250;10.412;2023-03-01T08:20:00;7.37;;;4.70;;
3865;SDS011;1948;53.250;10.412;2023-03-01T08:22:28;6.07;;;4.77;;
3865;SDS011;1948;53.250;10.412;2023-03-01T08:24:55;5.17;;;4.67;;
3865;SDS011;1948;53.250;10.412;2023-03-01T08:27:25;4.97;;;4.43;;
3865;SDS011;1948;53.250;10.412;2023-03-01T08:29:51;6.37;;;4.50;;
3865;SDS011;1948;53.250;10.412;2023-03-01T08:32:18;8.60;;;4.57;;
3865;SDS011;1948;53.250;10.412;2023-03-01T08:34:46;5.23;;;4.93;;
3865;SDS011;1948;53.250;10.412;2023-03-01T08:37:13;5.10;;;4.27;;
3865;SDS011;1948;53.250;10.412;2023-03-01T08:39:40;4.67;;;4.40;;
3865;SDS011;1948;53.250;10.412;2023-03-01T08:42:10;4.47;;;4.10;;
3865;SDS011;1948;53.250;10.412;2023-03-01T08:44:44;12.57;;;4.30;;
3865;SDS011;1948;53.250;10.412;2023-03-01T08:47:12;4.90;;;4.60;;
3865;SDS011;1948;53.250;10.412;2023-03-01T08:49:39;9.07;;;4.70;;
3865;SDS011;1948;53.250;10.412;2023-03-01T08:52:08;6.60;;;4.20;;
3865;SDS011;1948;53.250;10.412;2023-03-01T08:54:35;4.40;;;4.10;;
3865;SDS011;1948;53.250;10.412;2023-03-01T08:57:02;5.87;;;4.57;;
3865;SDS011;1948;53.250;10.412;2023-03-01T08:59:31;5.53;;;4.10;;
3865;SDS011;1948;53.250;10.412;2023-03-01T09:02:04;7.80;;;4.73;;
3865;SDS011;1948;53.250;10.412;2023-03-01T09:04:34;7.60;;;4.20;;
3865;SDS011;1948;53.250;10.412;2023-03-01T09:07:01;5.73;;;4.63;;
3865;SDS011;1948;53.250;10.412;2023-03-01T09:09:28;5.57;;;5.07;;
3865;SDS011;1948;53.250;10.412;2023-03-01T09:11:55;11.47;;;6.03;;
3865;SDS011;1948;53.250;10.412;2023-03-01T09:14:24;6.17;;;5.53;;
3865;SDS011;1948;53.250;10.412;2023-03-01T09:16:51;7.10;;;5.27;;
3865;SDS011;1948;53.250;10.412;2023-03-01T09:19:18;11.40;;;6.57;;
3865;SDS011;1948;53.250;10.412;2023-03-01T09:21:45;7.03;;;5.17;;
3865;SDS011;1948;53.250;10.412;2023-03-01T09:24:22;8.23;;;5.77;;
3865;SDS011;1948;53.250;10.412;2023-03-01T09:26:52;6.63;;;6.00;;
3865;SDS011;1948;53.250;10.412;2023-03-01T09:29:22;13.57;;;6.30;;
3865;SDS011;1948;53.250;10.412;2023-03-01T09:31:52;9.77;;;6.70;;
3865;SDS011;1948;53.250;10.412;2023-03-01T09:34:23;10.73;;;5.20;;
3865;SDS011;1948;53.250;10.412;2023-03-01T09:36:50;12.77;;;6.90;;
3865;SDS011;1948;53.250;10.412;2023-03-01T09:39:18;8.77;;;6.87;;
3865;SDS011;1948;53.250;10.412;2023-03-01T09:42:04;8.80;;;6.73;;
3865;SDS011;1948;53.250;10.412;2023-03-01T09:47:20;9.63;;;7.60;;
3865;SDS011;1948;53.250;10.412;2023-03-01T09:55:34;9.90;;;8.03;;
3865;SDS011;1948;53.250;10.412;2023-03-01T10:07:21;14.20;;;8.63;;
3865;SDS011;1948;53.250;10.412;2023-03-01T10:10:37;28.23;;;8.67;;
3865;SDS011;1948;53.250;10.412;2023-03-01T10:13:16;10.57;;;9.40;;
3865;SDS011;1948;53.250;10.412;2023-03-01T10:16:19;14.33;;;9.40;;
3865;SDS011;1948;53.250;10.412;2023-03-01T10:19:05;17.10;;;10.33;;
3865;SDS011;1948;53.250;10.412;2023-03-01T10:21:39;10.10;;;9.07;;
3865;SDS011;1948;53.250;10.412;2023-03-01T10:24:13;21.00;;;9.50;;
3865;SDS011;1948;53.250;10.412;2023-03-01T10:26:51;14.47;;;8.83;;
3865;SDS011;1948;53.250;10.412;2023-03-01T10:29:30;11.57;;;8.40;;
3865;SDS011;1948;53.250;10.412;2023-03-01T10:32:08;10.90;;;8.30;;
3865;SDS011;1948;53.250;10.412;2023-03-01T10:34:39;10.53;;;8.53;;
3865;SDS011;1948;53.250;10.412;2023-03-01T10:39:55;11.37;;;8.27;;
3865;SDS011;1948;53.250;10.412;2023-03-01T10:53:26;18.70;;;8.33;;
3865;SDS011;1948;53.250;10.412;2023-03-01T10:58:33;12.83;;;9.50;;
3865;SDS011;1948;53.250;10.412;2023-03-01T11:03:42;14.07;;;9.20;;
3865;SDS011;1948;53.250;10.412;2023-03-01T11:08:46;27.23;;;9.37;;
3865;SDS011;1948;53.250;10.412;2023-03-01T11:11:32;23.27;;;8.20;;
3865;SDS011;1948;53.250;10.412;2023-03-01T11:14:05;13.70;;;9.70;;
3865;SDS011;1948;53.250;10.412;2023-03-01T11:22:44;13.13;;;9.20;;
3865;SDS011;1948;53.250;10.412;2023-03-01T11:25:35;9.73;;;8.50;;
3865;SDS011;1948;53.250;10.412;2023-03-01T11:28:06;11.53;;;8.50;;
3865;SDS011;1948;53.250;10.412;2023-03-01T11:30:41;12.23;;;8.77;;
3865;SDS011;1948;53.250;10.412;2023-03-01T11:36:47;8.77;;;7.67;;
3865;SDS011;1948;53.250;10.412;2023-03-01T11:39:39;8.87;;;8.10;;
3865;SDS011;1948;53.250;10.412;2023-03-01T11:42:37;13.83;;;8.13;;
3865;SDS011;1948;53.250;10.412;2023-03-01T11:45:19;9.43;;;7.80;;
3865;SDS011;1948;53.250;10.412;2023-03-01T11:50:48;13.33;;;8.37;;
3865;SDS011;1948;53.250;10.412;2023-03-01T11:56:32;14.20;;;8.17;;
3865;SDS011;1948;53.250;10.412;2023-03-01T12:15:08;8.67;;;7.87;;
3865;SDS011;1948;53.250;10.412;2023-03-01T12:18:04;12.47;;;7.53;;
3865;SDS011;1948;53.250;10.412;2023-03-01T12:21:05;9.27;;;8.40;;
3865;SDS011;1948;53.250;10.412;2023-03-01T12:32:54;8.93;;;8.20;;
3865;SDS011;1948;53.250;10.412;2023-03-01T12:38:33;10.27;;;7.70;;
3865;SDS011;1948;53.250;10.412;2023-03-01T12:44:40;8.93;;;8.13;;
3865;SDS011;1948;53.250;10.412;2023-03-01T12:47:47;10.83;;;8.43;;
3865;SDS011;1948;53.250;10.412;2023-03-01T12:50:26;9.40;;;7.93;;
3865;SDS011;1948;53.250;10.412;2023-03-01T12:53:34;10.50;;;9.60;;
3865;SDS011;1948;53.250;10.412;2023-03-01T12:56:10;10.80;;;9.77;;
3865;SDS011;1948;53.250;10.412;2023-03-01T13:13:01;16.07;;;11.57;;
3865;SDS011;1948;53.250;10.412;2023-03-01T13:15:36;14.97;;;10.03;;
3865;SDS011;1948;53.250;10.412;2023-03-01T13:26:07;15.67;;;11.10;;
3865;SDS011;1948;53.250;10.412;2023-03-01T13:28:56;16.47;;;10.30;;
3865;SDS011;1948;53.250;10.412;2023-03-01T13:42:32;10.13;;;8.80;;
3865;SDS011;1948;53.250;10.412;2023-03-01T13:49:43;11.83;;;10.63;;
3865;SDS011;1948;53.250;10.412;2023-03-01T13:57:59;16.10;;;11.00;;
3865;SDS011;1948;53.250;10.412;2023-03-01T14:05:59;12.00;;;10.63;;
3865;SDS011;1948;53.250;10.412;2023-03-01T14:08:47;13.67;;;9.50;;
3865;SDS011;1948;53.250;10.412;2023-03-01T14:16:58;11.63;;;10.17;;
3865;SDS011;1948;53.250;10.412;2023-03-01T14:19:34;11.47;;;10.27;;
3865;SDS011;1948;53.250;10.412;2023-03-01T14:22:10;11.67;;;10.50;;
3865;SDS011;1948;53.250;10.412;2023-03-01T14:24:49;13.73;;;10.70;;
3865;SDS011;1948;53.250;10.412;2023-03-01T14:27:25;11.63;;;10.40;;
3865;SDS011;1948;53.250;10.412;2023-03-01T14:30:13;13.50;;;10.40;;
3865;SDS011;1948;53.250;10.412;2023-03-01T14:32:57;14.87;;;10.90;;
3865;SDS011;1948;53.250;10.412;2023-03-01T14:35:28;11.50;;;10.20;;
3865;SDS011;1948;53.250;10.412;2023-03-01T14:37:58;11.67;;;10.00;;
3865;SDS011;1948;53.250;10.412;2023-03-01T14:40:35;17.40;;;10.10;;
3865;SDS011;1948;53.250;10.412;2023-03-01T14:43:08;19.43;;;10.30;;
3865;SDS011;1948;53.250;10.412;2023-03-01T14:45:40;9.47;;;8.67;;
3865;SDS011;1948;53.250;10.412;2023-03-01T14:48:15;11.13;;;9.10;;
3865;SDS011;1948;53.250;10.412;2023-03-01T14:50:44;11.70;;;10.50;;
3865;SDS011;1948;53.250;10.412;2023-03-01T14:53:22;10.70;;;9.60;;
3865;SDS011;1948;53.250;10.412;2023-03-01T14:55:55;15.07;;;10.83;;
3865;SDS011;1948;53.250;10.412;2023-03-01T14:58:28;16.90;;;9.70;;
3865;SDS011;1948;53.250;10.412;2023-03-01T15:00:59;18.73;;;11.00;;
3865;SDS011;1948;53.250;10.412;2023-03-01T15:03:33;12.03;;;10.70;;
3865;SDS011;1948;53.250;10.412;2023-03-01T15:06:04;14.23;;;9.87;;
3865;SDS011;1948;53.250;10.412;2023-03-01T15:08:32;10.77;;;9.87;;
3865;SDS011;1948;53.250;10.412;2023-03-01T15:13:51;15.03;;;10.87;;
3865;SDS011;1948;53.250;10.412;2023-03-01T15:18:49;11.63;;;9.77;;
3865;SDS011;1948;53.250;10.412;2023-03-01T15:21:29;11.67;;;10.47;;
3865;SDS011;1948;53.250;10.412;2023-03-01T15:26:49;10.53;;;9.27;;
3865;SDS011;1948;53.250;10.412;2023-03-01T15:29:17;14.80;;;10.90;;
3865;SDS011;1948;53.250;10.412;2023-03-01T15:34:23;12.60;;;10.07;;
3865;SDS011;1948;53.250;10.412;2023-03-01T15:36:53;11.30;;;10.10;;
3865;SDS011;1948;53.250;10.412;2023-03-01T15:42:04;13.80;;;11.60;;
3865;SDS011;1948;53.250;10.412;2023-03-01T15:44:35;13.93;;;11.17;;
3865;SDS011;1948;53.250;10.412;2023-03-01T15:47:28;11.00;;;9.90;;
3865;SDS011;1948;53.250;10.412;2023-03-01T15:49:57;12.67;;;9.50;;
3865;SDS011;1948;53.250;10.412;2023-03-01T15:52:35;12.43;;;11.00;;
3865;SDS011;1948;53.250;10.412;2023-03-01T15:55:15;13.37;;;10.23;;
3865;SDS011;1948;53.250;10.412;2023-03-01T15:57:48;12.67;;;10.40;;
3865;SDS011;1948;53.250;10.412;2023-03-01T16:00:26;12.27;;;10.00;;
3865;SDS011;1948;53.250;10.412;2023-03-01T16:02:56;14.20;;;10.17;;
3865;SDS011;1948;53.250;10.412;2023-03-01T16:05:29;15.33;;;10.30;;
3865;SDS011;1948;53.250;10.412;2023-03-01T16:08:06;12.87;;;10.23;;
3865;SDS011;1948;53.250;10.412;2023-03-01T16:10:35;13.87;;;10.37;;
3865;SDS011;1948;53.250;10.412;2023-03-01T16:13:02;13.73;;;9.97;;
3865;SDS011;1948;53.250;10.412;2023-03-01T16:15:30;29.70;;;15.00;;
3865;SDS011;1948;53.250;10.412;2023-03-01T16:18:02;11.03;;;9.90;;
3865;SDS011;1948;53.250;10.412;2023-03-01T16:20:29;14.20;;;11.13;;
3865;SDS011;1948;53.250;10.412;2023-03-01T16:22:59;14.50;;;11.10;;
3865;SDS011;1948;53.250;10.412;2023-03-01T16:25:29;10.57;;;9.47;;
3865;SDS011;1948;53.250;10.412;2023-03-01T16:28:02;16.13;;;10.40;;
3865;SDS011;1948;53.250;10.412;2023-03-01T16:30:35;13.67;;;9.77;;
3865;SDS011;1948;53.250;10.412;2023-03-01T16:33:07;16.03;;;10.70;;
3865;SDS011;1948;53.250;10.412;2023-03-01T16:35:52;11.70;;;9.90;;
3865;SDS011;1948;53.250;10.412;2023-03-01T16:38:19;19.00;;;11.27;;
3865;SDS011;1948;53.250;10.412;2023-03-01T16:40:49;11.30;;;10.10;;
3865;SDS011;1948;53.250;10.412;2023-03-01T16:43:18;11.30;;;9.90;;
3865;SDS011;1948;53.250;10.412;2023-03-01T16:45:45;15.50;;;10.40;;
3865;SDS011;1948;53.250;10.412;2023-03-01T16:48:12;15.83;;;11.00;;
3865;SDS011;1948;53.250;10.412;2023-03-01T16:50:40;18.97;;;10.20;;
3865;SDS011;1948;53.250;10.412;2023-03-01T16:53:09;25.23;;;12.50;;
3865;SDS011;1948;53.250;10.412;2023-03-01T16:55:39;15.03;;;10.70;;
3865;SDS011;1948;53.250;10.412;2023-03-01T16:58:11;13.90;;;11.20;;
3865;SDS011;1948;53.250;10.412;2023-03-01T17:00:38;17.70;;;11.03;;
3865;SDS011;1948;53.250;10.412;2023-03-01T17:03:05;24.43;;;11.27;;
3865;SDS011;1948;53.250;10.412;2023-03-01T17:05:32;18.73;;;10.60;;
3865;SDS011;1948;53.250;10.412;2023-03-01T17:08:03;19.83;;;11.53;;
3865;SDS011;1948;53.250;10.412;2023-03-01T17:10:35;25.03;;;12.00;;
3865;SDS011;1948;53.250;10.412;2023-03-01T17:13:02;12.93;;;9.33;;
3865;SDS011;1948;53.250;10.412;2023-03-01T17:15:32;11.87;;;9.23;;
3865;SDS011;1948;53.250;10.412;2023-03-01T17:17:59;20.03;;;11.10;;
3865;SDS011;1948;53.250;10.412;2023-03-01T17:20:26;14.37;;;8.93;;
3865;SDS011;1948;53.250;10.412;2023-03-01T17:22:53;16.97;;;8.40;;
3865;SDS011;1948;53.250;10.412;2023-03-01T17:25:20;11.43;;;7.97;;
3865;SDS011;1948;53.250;10.412;2023-03-01T17:27:47;19.80;;;9.33;;
3865;SDS011;1948;53.250;10.412;2023-03-01T17:30:15;14.07;;;7.93;;
3865;SDS011;1948;53.250;10.412;2023-03-01T17:32:43;14.70;;;9.30;;
3865;SDS011;1948;53.250;10.412;2023-03-01T17:35:12;13.37;;;8.37;;
3865;SDS011;1948;53.250;10.412;2023-03-01T17:37:39;9.27;;;8.20;;
3865;SDS011;1948;53.250;10.412;2023-03-01T17:40:12;12.37;;;8.37;;
3865;SDS011;1948;53.250;10.412;2023-03-01T17:42:42;12.77;;;8.27;;
3865;SDS011;1948;53.250;10.412;2023-03-01T17:45:09;12.83;;;7.83;;
3865;SDS011;1948;53.250;10.412;2023-03-01T17:47:39;14.90;;;8.37;;
3865;SDS011;1948;53.250;10.412;2023-03-01T17:50:06;11.07;;;8.17;;
3865;SDS011;1948;53.250;10.412;2023-03-01T17:52:37;10.13;;;8.37;;
3865;SDS011;1948;53.250;10.412;2023-03-01T17:55:04;9.13;;;7.17;;
3865;SDS011;1948;53.250;10.412;2023-03-01T17:57:34;15.27;;;8.57;;
3865;SDS011;1948;53.250;10.412;2023-03-01T18:00:09;8.33;;;7.43;;
3865;SDS011;1948;53.250;10.412;2023-03-01T18:02:43;16.57;;;8.70;;
3865;SDS011;1948;53.250;10.412;2023-03-01T18:05:10;12.37;;;9.07;;
3865;SDS011;1948;53.250;10.412;2023-03-01T18:07:40;15.23;;;8.47;;